createdAt,value
2022-10-01T00:00:31.044Z,2.47
2022-10-01T00:03:38.346Z,1.95
2022-10-01T00:06:43.039Z,1.90
2022-10-01T00:09:48.420Z,1.90
2022-10-01T00:12:53.371Z,2.15
2022-10-01T00:16:00.568Z,3.08
2022-10-01T00:19:05.350Z,2.65
2022-10-01T00:22:12.945Z,2.30
2022-10-01T00:25:18.300Z,2.60
2022-10-01T00:28:23.135Z,2.97
2022-10-01T00:31:30.513Z,3.67
2022-10-01T00:34:35.380Z,2.58
2022-10-01T00:37:40.576Z,3.00
2022-10-01T00:40:45.263Z,3.17
2022-10-01T00:43:57.498Z,3.58
2022-10-01T00:47:10.653Z,3.30
2022-10-01T00:50:20.927Z,4.10
2022-10-01T00:53:26.716Z,3.10
2022-10-01T00:56:32.167Z,3.60
2022-10-01T00:59:37.692Z,3.58
2022-10-01T01:02:44.369Z,3.45
2022-10-01T01:05:50.323Z,4.38
2022-10-01T01:08:56.188Z,4.43
2022-10-01T01:12:09.242Z,3.85
2022-10-01T01:15:19.468Z,3.67
2022-10-01T01:18:30.602Z,3.67
2022-10-01T01:21:37.450Z,4.25
2022-10-01T01:24:51.190Z,3.53
2022-10-01T01:28:08.485Z,4.43
2022-10-01T01:31:16.636Z,3.47
2022-10-01T01:34:27.168Z,4.60
2022-10-01T01:37:35.700Z,3.35
2022-10-01T01:40:42.871Z,3.33
2022-10-01T01:43:51.591Z,3.45
2022-10-01T01:46:57.582Z,3.35
2022-10-01T01:50:04.190Z,3.30
2022-10-01T01:53:09.950Z,3.97
2022-10-01T01:56:14.749Z,3.10
2022-10-01T01:59:20.935Z,3.03
2022-10-01T02:02:29.555Z,3.10
2022-10-01T02:05:44.917Z,3.40
2022-10-01T02:08:53.242Z,3.75
2022-10-01T02:12:11.023Z,3.35
2022-10-01T02:15:24.863Z,3.20
2022-10-01T02:18:38.483Z,3.33
2022-10-01T02:21:48.619Z,3.65
2022-10-01T02:24:57.249Z,3.15
2022-10-01T02:28:06.120Z,3.17
2022-10-01T02:31:14.735Z,3.40
2022-10-01T02:34:20.884Z,3.17
2022-10-01T02:37:28.174Z,5.40
2022-10-01T02:40:36.581Z,3.70
2022-10-01T02:43:47.333Z,3.53
2022-10-01T02:46:57.308Z,2.70
2022-10-01T02:50:02.688Z,2.92
2022-10-01T02:53:11.019Z,2.50
2022-10-01T02:56:36.346Z,2.72
2022-10-01T02:59:41.050Z,2.42
2022-10-01T03:02:47.451Z,2.45
2022-10-01T03:05:52.199Z,1.90
2022-10-01T03:09:00.095Z,2.08
2022-10-01T03:12:06.609Z,2.60
2022-10-01T03:15:12.463Z,2.38
2022-10-01T03:18:18.574Z,2.58
2022-10-01T03:21:23.535Z,2.15
2022-10-01T03:24:28.319Z,3.08
2022-10-01T03:27:33.026Z,2.65
2022-10-01T03:30:38.028Z,2.15
2022-10-01T03:33:44.519Z,2.10
2022-10-01T03:36:50.032Z,2.28
2022-10-01T03:39:54.752Z,2.15
2022-10-01T03:42:59.601Z,2.10
2022-10-01T03:46:04.818Z,2.03
2022-10-01T03:49:11.080Z,3.15
2022-10-01T03:52:15.848Z,2.38
2022-10-01T03:55:20.863Z,2.72
2022-10-01T03:58:26.571Z,2.30
2022-10-01T04:01:32.235Z,2.40
2022-10-01T04:04:38.794Z,2.80
2022-10-01T04:07:43.814Z,2.72
2022-10-01T04:10:49.448Z,2.60
2022-10-01T04:13:54.388Z,2.70
2022-10-01T04:16:59.127Z,2.85
2022-10-01T04:20:05.915Z,2.80
2022-10-01T04:23:11.412Z,3.10
2022-10-01T04:26:18.759Z,2.70
2022-10-01T04:29:23.592Z,2.67
2022-10-01T04:32:28.595Z,3.10
2022-10-01T04:35:35.324Z,3.47
2022-10-01T04:38:40.411Z,2.85
2022-10-01T04:41:45.332Z,3.00
2022-10-01T04:44:50.272Z,3.22
2022-10-01T04:47:56.704Z,3.10
2022-10-01T04:51:02.739Z,2.72
2022-10-01T04:54:07.610Z,3.28
2022-10-01T04:57:12.317Z,3.03
2022-10-01T05:00:20.702Z,3.22
2022-10-01T05:03:25.491Z,2.75
2022-10-01T05:06:31.647Z,2.90
2022-10-01T05:09:36.487Z,2.88
2022-10-01T05:12:41.720Z,3.65
2022-10-01T05:15:46.820Z,3.22
2022-10-01T05:18:51.811Z,3.30
2022-10-01T05:21:58.020Z,3.42
2022-10-01T05:25:03.098Z,3.22
2022-10-01T05:28:25.345Z,3.50
2022-10-01T05:31:30.151Z,3.13
2022-10-01T05:34:35.294Z,3.42
2022-10-01T05:37:41.631Z,3.65
2022-10-01T05:40:47.534Z,4.10
2022-10-01T05:43:52.264Z,3.80
2022-10-01T05:46:57.055Z,4.22
2022-10-01T05:50:02.152Z,3.75
2022-10-01T05:53:10.883Z,3.55
2022-10-01T05:56:15.725Z,4.18
2022-10-01T05:59:20.797Z,6.65
2022-10-01T06:02:25.967Z,4.72
2022-10-01T06:05:32.543Z,3.35
2022-10-01T06:08:38.862Z,4.88
2022-10-01T06:11:44.191Z,4.95
2022-10-01T06:14:49.557Z,6.63
2022-10-01T06:17:54.268Z,4.63
2022-10-01T06:21:00.750Z,3.58
2022-10-01T06:24:07.124Z,8.23
2022-10-01T06:27:12.809Z,3.90
2022-10-01T06:30:17.746Z,3.20
2022-10-01T06:33:22.721Z,3.50
2022-10-01T06:36:27.878Z,3.15
2022-10-01T06:39:34.253Z,3.97
2022-10-01T06:42:39.240Z,3.50
2022-10-01T06:45:44.150Z,4.75
2022-10-01T06:48:49.107Z,2.75
2022-10-01T06:52:11.782Z,3.20
2022-10-01T06:55:18.459Z,3.10
2022-10-01T06:58:26.327Z,2.97
2022-10-01T07:01:32.967Z,2.80
2022-10-01T07:04:38.375Z,2.90
2022-10-01T07:07:43.879Z,3.53
2022-10-01T07:10:50.018Z,2.75
2022-10-01T07:13:54.971Z,2.63
2022-10-01T07:16:59.999Z,2.40
2022-10-01T07:20:05.347Z,2.70
2022-10-01T07:23:13.571Z,3.42
2022-10-01T07:26:19.772Z,3.28
2022-10-01T07:29:25.261Z,2.47
2022-10-01T07:32:31.606Z,2.85
2022-10-01T07:35:38.933Z,4.63
2022-10-01T07:38:46.303Z,2.63
2022-10-01T07:41:52.652Z,2.47
2022-10-01T07:44:57.318Z,2.28
2022-10-01T07:48:04.281Z,4.22
2022-10-01T07:51:10.260Z,2.78
2022-10-01T07:54:15.650Z,2.70
2022-10-01T07:57:23.422Z,2.88
2022-10-01T08:00:28.803Z,2.30
2022-10-01T08:03:33.462Z,2.55
2022-10-01T08:06:39.159Z,2.58
2022-10-01T08:09:43.883Z,2.53
2022-10-01T08:12:50.056Z,2.33
2022-10-01T08:15:55.053Z,2.55
2022-10-01T08:18:59.963Z,2.38
2022-10-01T08:22:04.803Z,2.55
2022-10-01T08:25:11.273Z,2.33
2022-10-01T08:28:18.755Z,2.10
2022-10-01T08:31:24.408Z,2.40
2022-10-01T08:34:29.583Z,2.35
2022-10-01T08:37:34.910Z,2.30
2022-10-01T08:40:46.656Z,2.72
2022-10-01T08:43:52.918Z,2.88
2022-10-01T08:47:03.024Z,2.67
2022-10-01T08:50:18.309Z,2.55
2022-10-01T08:53:31.456Z,2.90
2022-10-01T08:56:41.131Z,2.70
2022-10-01T08:59:50.252Z,2.80
2022-10-01T09:02:55.174Z,2.40
2022-10-01T09:06:14.454Z,2.50
2022-10-01T09:09:35.680Z,2.30
2022-10-01T09:12:48.378Z,2.22
2022-10-01T09:16:02.792Z,2.70
2022-10-01T09:19:24.430Z,2.42
2022-10-01T09:22:39.662Z,3.15
2022-10-01T09:25:45.942Z,2.53
2022-10-01T09:28:52.942Z,2.70
2022-10-01T09:32:01.288Z,3.15
2022-10-01T09:35:22.082Z,3.00
2022-10-01T09:38:33.385Z,2.45
2022-10-01T09:41:38.872Z,2.40
2022-10-01T09:44:44.090Z,2.95
2022-10-01T09:47:52.627Z,2.33
2022-10-01T09:51:00.983Z,3.78
2022-10-01T09:54:14.149Z,3.00
2022-10-01T09:57:25.940Z,3.60
2022-10-01T10:00:31.335Z,3.05
2022-10-01T10:03:37.626Z,3.47
2022-10-01T10:06:42.490Z,6.03
2022-10-01T10:09:47.564Z,3.60
2022-10-01T10:12:58.331Z,3.50
2022-10-01T10:16:10.955Z,4.13
2022-10-01T10:19:25.907Z,2.70
2022-10-01T10:22:31.043Z,2.00
2022-10-01T10:25:36.320Z,2.35
2022-10-01T10:28:44.584Z,2.22
2022-10-01T10:31:51.221Z,2.50
2022-10-01T10:35:03.069Z,2.00
2022-10-01T10:38:17.702Z,2.20
2022-10-01T10:41:26.476Z,2.40
2022-10-01T10:44:36.134Z,2.28
2022-10-01T10:47:46.155Z,2.88
2022-10-01T10:51:00.774Z,2.83
2022-10-01T10:54:20.261Z,3.85
2022-10-01T10:57:28.872Z,4.00
2022-10-01T11:00:38.117Z,5.38
2022-10-01T11:03:47.579Z,3.40
2022-10-01T11:07:02.315Z,3.25
2022-10-01T11:10:29.564Z,2.97
2022-10-01T11:14:07.949Z,3.70
2022-10-01T11:17:57.235Z,9.10
2022-10-01T11:21:22.367Z,3.22
2022-10-01T11:24:53.616Z,3.75
2022-10-01T11:28:09.163Z,3.53
2022-10-01T11:31:23.761Z,4.85
2022-10-01T11:35:04.736Z,5.10
2022-10-01T11:38:50.025Z,5.10
2022-10-01T11:42:00.801Z,6.82
2022-10-01T11:45:15.396Z,4.78
2022-10-01T11:48:28.019Z,4.22
2022-10-01T11:51:39.631Z,4.70
2022-10-01T11:54:57.436Z,4.13
2022-10-01T11:58:30.799Z,4.30
2022-10-01T12:01:40.161Z,4.78
2022-10-01T12:04:50.824Z,4.13
2022-10-01T12:08:00.350Z,4.20
2022-10-01T12:11:13.081Z,4.43
2022-10-01T12:14:23.912Z,3.95
2022-10-01T12:17:35.105Z,3.35
2022-10-01T12:20:44.254Z,5.93
2022-10-01T12:23:53.483Z,3.85
2022-10-01T12:27:23.771Z,6.32
2022-10-01T12:30:32.787Z,3.08
2022-10-01T12:34:05.819Z,3.97
2022-10-01T12:37:22.661Z,3.55
2022-10-01T12:40:33.990Z,3.40
2022-10-01T12:43:53.398Z,3.35
2022-10-01T12:47:15.760Z,3.20
2022-10-01T12:50:32.987Z,2.72
2022-10-01T12:53:41.490Z,3.40
2022-10-01T12:56:51.011Z,3.25
2022-10-01T13:00:07.967Z,3.10
2022-10-01T13:03:37.484Z,5.10
2022-10-01T13:06:54.826Z,4.30
2022-10-01T13:10:13.590Z,2.38
2022-10-01T13:13:22.679Z,2.70
2022-10-01T13:16:32.769Z,2.58
2022-10-01T13:19:46.999Z,2.33
2022-10-01T13:22:56.070Z,3.25
2022-10-01T13:26:08.067Z,1.98
2022-10-01T13:29:27.323Z,2.33
2022-10-01T13:32:34.685Z,2.25
2022-10-01T13:35:42.270Z,2.30
2022-10-01T13:38:48.095Z,2.90
2022-10-01T13:41:58.402Z,2.35
2022-10-01T13:45:06.435Z,2.53
2022-10-01T13:48:22.143Z,2.55
2022-10-01T13:51:37.810Z,2.38
2022-10-01T13:54:48.912Z,2.30
2022-10-01T13:58:04.202Z,2.40
2022-10-01T14:01:31.966Z,5.55
2022-10-01T14:04:40.469Z,2.70
2022-10-01T14:07:48.219Z,4.72
2022-10-01T14:11:16.340Z,2.75
2022-10-01T14:14:42.020Z,3.45
2022-10-01T14:17:49.514Z,2.78
2022-10-01T14:21:01.147Z,2.72
2022-10-01T14:24:19.020Z,2.80
2022-10-01T14:27:31.111Z,3.10
2022-10-01T14:30:42.735Z,3.28
2022-10-01T14:34:22.159Z,3.05
2022-10-01T14:37:27.439Z,3.55
2022-10-01T14:40:39.904Z,5.07
2022-10-01T14:43:44.996Z,4.80
2022-10-01T14:46:50.184Z,4.15
2022-10-01T14:49:55.925Z,6.93
2022-10-01T14:53:00.819Z,4.25
2022-10-01T14:56:10.103Z,4.63
2022-10-01T14:59:22.914Z,5.03
2022-10-01T15:02:29.087Z,4.85
2022-10-01T15:05:35.570Z,5.47
2022-10-01T15:08:42.088Z,5.57
2022-10-01T15:11:51.420Z,5.03
2022-10-01T15:14:56.901Z,5.20
2022-10-01T15:18:04.616Z,5.40
2022-10-01T15:21:17.542Z,7.85
2022-10-01T15:24:26.418Z,5.53
2022-10-01T15:27:32.576Z,5.95
2022-10-01T15:30:38.687Z,5.57
2022-10-01T15:33:43.593Z,5.53
2022-10-01T15:36:49.794Z,6.13
2022-10-01T15:39:54.882Z,7.40
2022-10-01T15:43:27.697Z,5.88
2022-10-01T15:46:35.568Z,8.18
2022-10-01T15:49:41.219Z,8.13
2022-10-01T15:52:54.345Z,8.43
2022-10-01T15:56:00.575Z,7.25
2022-10-01T15:59:17.771Z,7.18
2022-10-01T16:02:25.996Z,7.07
2022-10-01T16:05:38.405Z,6.50
2022-10-01T16:09:00.198Z,6.95
2022-10-01T16:12:17.485Z,7.43
2022-10-01T16:15:28.841Z,6.82
2022-10-01T16:18:34.903Z,7.65
2022-10-01T16:21:42.083Z,5.68
2022-10-01T16:24:48.687Z,6.72
2022-10-01T16:27:57.009Z,7.15
2022-10-01T16:31:05.822Z,6.45
2022-10-01T16:34:12.983Z,6.70
2022-10-01T16:37:17.964Z,6.80
2022-10-01T16:40:25.427Z,6.45
2022-10-01T16:43:31.270Z,6.25
2022-10-01T16:46:37.443Z,6.22
2022-10-01T16:49:42.711Z,7.45
2022-10-01T16:52:47.808Z,7.18
2022-10-01T16:55:52.809Z,7.15
2022-10-01T16:58:57.972Z,6.78
2022-10-01T17:02:04.487Z,7.18
2022-10-01T17:05:19.772Z,6.55
2022-10-01T17:08:24.659Z,7.00
2022-10-01T17:11:30.283Z,6.25
2022-10-01T17:14:35.265Z,6.43
2022-10-01T17:17:41.493Z,6.78
2022-10-01T17:20:46.320Z,7.38
2022-10-01T17:23:53.516Z,7.30
2022-10-01T17:26:58.424Z,6.68
2022-10-01T17:30:03.399Z,8.55
2022-10-01T17:33:13.279Z,6.43
2022-10-01T17:36:18.070Z,7.15
2022-10-01T17:39:22.998Z,7.30
2022-10-01T17:42:28.304Z,10.07
2022-10-01T17:45:33.092Z,6.93
2022-10-01T17:48:39.459Z,6.97
2022-10-01T17:51:44.383Z,6.80
2022-10-01T17:54:49.274Z,8.35
2022-10-01T17:57:54.244Z,6.80
2022-10-01T18:00:59.297Z,8.27
2022-10-01T18:04:05.720Z,8.13
2022-10-01T18:07:11.203Z,6.10
2022-10-01T18:10:15.872Z,6.43
2022-10-01T18:13:20.823Z,6.65
2022-10-01T18:16:25.961Z,7.20
2022-10-01T18:19:52.959Z,6.70
2022-10-01T18:22:57.042Z,7.05
2022-10-01T18:26:02.082Z,8.88
2022-10-01T18:29:07.296Z,7.88
2022-10-01T18:32:19.550Z,8.07
2022-10-01T18:35:31.583Z,8.50
2022-10-01T18:38:39.401Z,8.75
2022-10-01T18:41:45.140Z,9.30
2022-10-01T18:44:54.372Z,9.00
2022-10-01T18:48:21.707Z,7.75
2022-10-01T18:51:43.236Z,8.00
2022-10-01T18:55:04.458Z,9.45
2022-10-01T18:58:27.523Z,7.60
2022-10-01T19:01:41.542Z,7.45
2022-10-01T19:05:05.392Z,7.93
2022-10-01T19:08:35.211Z,7.28
2022-10-01T19:11:49.315Z,7.72
2022-10-01T19:15:04.838Z,7.38
2022-10-01T19:18:27.879Z,11.00
2022-10-01T19:21:38.574Z,10.00
2022-10-01T19:24:58.775Z,8.30
2022-10-01T19:28:15.907Z,7.35
2022-10-01T19:31:28.293Z,8.07
2022-10-01T19:34:39.107Z,7.68
2022-10-01T19:37:49.422Z,10.35
2022-10-01T19:40:59.863Z,8.60
2022-10-01T19:44:11.423Z,7.38
2022-10-01T19:47:28.971Z,9.75
2022-10-01T19:50:38.020Z,8.02
2022-10-01T19:53:45.763Z,7.85
2022-10-01T19:56:55.951Z,8.15
2022-10-01T20:00:08.226Z,13.13
2022-10-01T20:03:22.776Z,8.43
2022-10-01T20:06:33.415Z,9.27
2022-10-01T20:09:45.616Z,8.85
2022-10-01T20:13:05.835Z,9.55
2022-10-01T20:16:19.930Z,8.75
2022-10-01T20:19:28.988Z,8.80
2022-10-01T20:22:40.959Z,12.55
2022-10-01T20:25:51.899Z,9.90
2022-10-01T20:29:11.857Z,10.82
2022-10-01T20:32:21.914Z,12.48
2022-10-01T20:35:32.929Z,10.05
2022-10-01T20:38:47.918Z,11.32
2022-10-01T20:41:54.584Z,10.65
2022-10-01T20:45:02.388Z,9.68
2022-10-01T20:48:13.454Z,10.15
2022-10-01T20:51:24.231Z,10.98
2022-10-01T20:54:35.608Z,10.20
2022-10-01T20:57:47.539Z,10.90
2022-10-01T21:00:59.507Z,9.60
2022-10-01T21:04:09.955Z,10.57
2022-10-01T21:07:29.565Z,12.45
2022-10-01T21:10:41.057Z,13.82
2022-10-01T21:13:54.139Z,12.68
2022-10-01T21:17:27.740Z,13.43
2022-10-01T21:20:49.431Z,12.93
2022-10-01T21:24:10.199Z,13.38
2022-10-01T21:27:34.120Z,13.07
2022-10-01T21:30:53.805Z,14.07
2022-10-01T21:34:05.774Z,12.75
2022-10-01T21:37:16.497Z,14.65
2022-10-01T21:40:29.487Z,12.43
2022-10-01T21:43:52.070Z,15.75
2022-10-01T21:47:05.140Z,12.60
2022-10-01T21:50:23.999Z,14.20
2022-10-01T21:53:57.631Z,15.27
2022-10-01T21:57:20.143Z,15.00
2022-10-01T22:00:28.860Z,13.10
2022-10-01T22:03:39.183Z,13.98
2022-10-01T22:06:50.931Z,14.23
2022-10-01T22:10:09.023Z,16.38
2022-10-01T22:13:18.888Z,15.98
2022-10-01T22:16:28.207Z,15.82
2022-10-01T22:19:37.200Z,15.45
2022-10-01T22:22:43.671Z,14.23
2022-10-01T22:25:59.121Z,12.73
2022-10-01T22:29:04.883Z,14.98
2022-10-01T22:32:13.530Z,16.55
2022-10-01T22:35:28.359Z,12.10
2022-10-01T22:38:39.437Z,16.20
2022-10-01T22:41:47.648Z,13.23
2022-10-01T22:44:53.048Z,15.15
2022-10-01T22:48:09.701Z,13.45
2022-10-01T22:51:32.668Z,15.75
2022-10-01T22:54:51.603Z,13.60
2022-10-01T22:58:54.135Z,13.93
2022-10-01T23:02:05.341Z,12.70
2022-10-01T23:05:39.744Z,13.60
2022-10-01T23:08:48.622Z,14.77
2022-10-01T23:12:00.383Z,14.70
2022-10-01T23:15:20.971Z,15.32
2022-10-01T23:18:34.968Z,19.42
2022-10-01T23:21:45.974Z,13.15
2022-10-01T23:25:06.711Z,13.75
2022-10-01T23:28:24.242Z,14.43
2022-10-01T23:31:37.214Z,16.23
2022-10-01T23:34:50.571Z,16.40
2022-10-01T23:38:18.208Z,14.73
2022-10-01T23:41:28.787Z,11.82
2022-10-01T23:44:39.800Z,13.15
2022-10-01T23:47:51.490Z,13.35
2022-10-01T23:51:01.669Z,14.38
2022-10-01T23:54:12.691Z,15.77
2022-10-01T23:57:21.662Z,14.50
